createdAt,value
2019-02-17T00:01:25.966Z,4.90
2019-02-17T00:03:53.280Z,4.80
2019-02-17T00:06:20.857Z,4.90
2019-02-17T00:08:48.711Z,4.90
2019-02-17T00:11:16.278Z,4.90
2019-02-17T00:13:43.568Z,4.80
2019-02-17T00:16:10.978Z,4.70
2019-02-17T00:18:38.551Z,4.80
2019-02-17T00:21:05.874Z,4.80
2019-02-17T00:23:33.508Z,4.70
2019-02-17T00:26:00.842Z,4.70
2019-02-17T00:28:28.583Z,4.60
2019-02-17T00:30:56.266Z,4.60
2019-02-17T00:33:23.568Z,4.60
2019-02-17T00:35:51.510Z,4.40
2019-02-17T00:38:19.198Z,4.60
2019-02-17T00:40:46.689Z,4.60
2019-02-17T00:43:14.044Z,4.70
2019-02-17T00:45:41.763Z,4.70
2019-02-17T00:48:09.814Z,4.60
2019-02-17T00:50:37.129Z,4.60
2019-02-17T00:53:04.435Z,4.40
2019-02-17T00:55:32.043Z,4.40
2019-02-17T00:57:59.425Z,4.60
2019-02-17T01:00:26.701Z,4.60
2019-02-17T01:02:54.027Z,4.70
2019-02-17T01:05:21.343Z,4.60
2019-02-17T01:07:48.864Z,4.40
2019-02-17T01:10:16.539Z,4.30
2019-02-17T01:12:44.570Z,4.50
2019-02-17T01:15:11.987Z,4.40
2019-02-17T01:17:39.307Z,4.60
2019-02-17T01:20:07.039Z,4.60
2019-02-17T01:22:34.603Z,4.50
2019-02-17T01:25:01.915Z,4.40
2019-02-17T01:27:29.203Z,4.40
2019-02-17T01:29:56.679Z,4.40
2019-02-17T01:32:24.297Z,4.40
2019-02-17T01:34:51.663Z,4.40
2019-02-17T01:37:18.980Z,4.30
2019-02-17T01:39:51.718Z,4.50
2019-02-17T01:42:19.391Z,4.60
2019-02-17T01:44:47.006Z,4.60
2019-02-17T01:47:14.671Z,4.70
2019-02-17T01:49:42.006Z,4.50
2019-02-17T01:52:09.291Z,4.40
2019-02-17T01:54:36.615Z,4.30
2019-02-17T01:57:04.147Z,4.30
2019-02-17T01:59:31.559Z,4.30
2019-02-17T02:01:59.011Z,4.30
2019-02-17T02:04:26.325Z,4.30
2019-02-17T02:06:54.011Z,4.20
2019-02-17T02:09:21.467Z,4.40
2019-02-17T02:11:48.758Z,4.50
2019-02-17T02:14:16.433Z,4.50
2019-02-17T02:16:44.143Z,4.40
2019-02-17T02:19:11.479Z,4.20
2019-02-17T02:21:41.086Z,4.30
2019-02-17T02:24:08.730Z,4.20
2019-02-17T02:26:36.051Z,4.20
2019-02-17T02:29:03.612Z,4.20
2019-02-17T02:31:30.931Z,4.30
2019-02-17T02:33:58.227Z,4.30
2019-02-17T02:36:25.645Z,4.50
2019-02-17T02:38:52.923Z,4.40
2019-02-17T02:41:20.500Z,4.40
2019-02-17T02:43:48.519Z,4.30
2019-02-17T02:46:15.954Z,4.10
2019-02-17T02:48:43.219Z,3.90
2019-02-17T02:51:10.537Z,3.90
2019-02-17T02:53:37.852Z,3.70
2019-02-17T02:56:05.620Z,3.50
2019-02-17T02:58:33.172Z,3.30
2019-02-17T03:01:00.637Z,3.10
2019-02-17T03:03:28.700Z,2.80
2019-02-17T03:06:08.682Z,2.50
2019-02-17T03:08:36.363Z,2.30
2019-02-17T03:16:55.414Z,1.70
2019-02-17T03:19:22.691Z,1.60
2019-02-17T03:21:50.346Z,1.50
2019-02-17T03:24:17.613Z,1.40
2019-02-17T03:26:45.287Z,1.30
2019-02-17T03:29:12.534Z,1.20
2019-02-17T03:31:39.844Z,1.20
2019-02-17T03:34:07.307Z,1.20
2019-02-17T03:36:34.603Z,1.20
2019-02-17T03:39:02.190Z,1.20
2019-02-17T03:41:29.588Z,1.10
2019-02-17T03:43:57.525Z,1.20
2019-02-17T03:46:25.190Z,1.10
2019-02-17T03:48:52.473Z,1.10
2019-02-17T03:51:19.751Z,1.40
2019-02-17T03:53:47.010Z,1.70
2019-02-17T03:56:14.358Z,2.20
2019-02-17T03:58:41.640Z,2.50
2019-02-17T04:01:08.940Z,2.60
2019-02-17T04:03:36.602Z,2.80
2019-02-17T04:06:03.936Z,3.00
2019-02-17T04:08:31.936Z,2.90
2019-02-17T04:10:59.353Z,3.20
2019-02-17T04:13:27.090Z,3.30
2019-02-17T04:15:54.413Z,3.30
2019-02-17T04:18:21.719Z,3.30
2019-02-17T04:20:49.100Z,3.40
2019-02-17T04:23:16.421Z,3.40
2019-02-17T04:25:44.032Z,3.30
2019-02-17T04:28:11.306Z,3.20
2019-02-17T04:30:38.956Z,3.00
2019-02-17T04:33:06.246Z,3.10
2019-02-17T04:35:33.844Z,3.30
2019-02-17T04:38:01.147Z,3.40
2019-02-17T04:40:28.778Z,3.40
2019-02-17T04:42:56.019Z,3.40
2019-02-17T04:45:23.303Z,3.20
2019-02-17T04:47:50.563Z,3.30
2019-02-17T04:50:18.208Z,3.10
2019-02-17T04:52:45.827Z,3.00
2019-02-17T04:55:13.138Z,3.00
2019-02-17T04:57:40.399Z,2.90
2019-02-17T05:00:07.802Z,2.80
2019-02-17T05:02:35.064Z,2.80
2019-02-17T05:05:02.387Z,2.90
2019-02-17T05:07:29.630Z,2.90
2019-02-17T05:09:57.352Z,2.60
2019-02-17T05:12:24.623Z,2.70
2019-02-17T05:14:51.963Z,3.00
2019-02-17T05:17:19.268Z,2.80
2019-02-17T05:19:46.564Z,2.80
2019-02-17T05:22:13.874Z,2.80
2019-02-17T05:24:41.472Z,2.80
2019-02-17T05:27:08.804Z,2.80
2019-02-17T05:29:36.042Z,2.80
2019-02-17T05:32:03.317Z,3.00
2019-02-17T05:34:30.595Z,2.90
2019-02-17T05:36:58.437Z,2.90
2019-02-17T05:39:25.707Z,2.90
2019-02-17T05:41:53.020Z,2.90
2019-02-17T05:44:20.354Z,2.80
2019-02-17T05:46:47.625Z,2.80
2019-02-17T05:49:15.237Z,2.80
2019-02-17T05:51:42.535Z,2.80
2019-02-17T05:54:09.840Z,2.80
2019-02-17T05:56:37.474Z,2.70
2019-02-17T05:59:04.714Z,2.70
2019-02-17T06:01:32.019Z,2.70
2019-02-17T06:03:59.639Z,2.40
2019-02-17T06:06:26.920Z,2.40
2019-02-17T06:08:54.568Z,2.60
2019-02-17T06:11:22.203Z,2.70
2019-02-17T06:13:49.490Z,2.70
2019-02-17T06:16:16.788Z,2.80
2019-02-17T06:18:44.381Z,2.90
2019-02-17T06:21:11.661Z,2.70
2019-02-17T06:23:39.694Z,2.80
2019-02-17T06:26:06.976Z,2.80
2019-02-17T06:28:34.498Z,2.80
2019-02-17T06:31:02.089Z,2.90
2019-02-17T06:33:29.386Z,2.90
2019-02-17T06:35:56.739Z,3.00
2019-02-17T06:38:24.393Z,3.00
2019-02-17T06:40:51.695Z,3.00
2019-02-17T06:43:19.442Z,3.00
2019-02-17T06:45:46.777Z,3.00
2019-02-17T06:48:14.148Z,3.10
2019-02-17T06:50:41.626Z,3.10
2019-02-17T06:53:08.937Z,3.10
2019-02-17T06:55:58.948Z,3.10
2019-02-17T06:58:26.323Z,3.20
2019-02-17T07:00:55.632Z,3.00
2019-02-17T07:03:23.667Z,3.00
2019-02-17T07:06:08.221Z,2.90
2019-02-17T07:08:35.826Z,3.00
2019-02-17T07:11:04.527Z,3.00
2019-02-17T07:13:32.798Z,3.00
2019-02-17T07:16:00.808Z,2.90
2019-02-17T07:18:28.699Z,3.00
2019-02-17T07:20:56.271Z,3.00
2019-02-17T07:23:24.418Z,3.10
2019-02-17T07:25:52.403Z,3.20
2019-02-17T07:28:20.324Z,3.30
2019-02-17T07:30:48.601Z,3.30
2019-02-17T07:33:16.586Z,3.40
2019-02-17T07:35:44.479Z,3.40
2019-02-17T07:38:12.182Z,3.50
2019-02-17T07:40:40.155Z,3.60
2019-02-17T07:43:07.784Z,3.70
2019-02-17T07:45:36.141Z,3.70
2019-02-17T07:48:04.295Z,3.80
2019-02-17T07:50:31.946Z,3.90
2019-02-17T07:53:01.010Z,4.20
2019-02-17T07:55:28.782Z,4.60
2019-02-17T07:57:58.443Z,5.00
2019-02-17T08:00:26.023Z,5.20
2019-02-17T08:02:53.878Z,5.40
2019-02-17T08:05:21.311Z,5.50
2019-02-17T08:07:49.004Z,5.70
2019-02-17T08:10:16.773Z,5.80
2019-02-17T08:12:44.473Z,5.80
2019-02-17T08:15:13.170Z,5.80
2019-02-17T08:17:41.004Z,6.00
2019-02-17T08:20:09.666Z,6.10
2019-02-17T08:22:37.613Z,6.30
2019-02-17T08:25:05.902Z,6.40
2019-02-17T08:27:34.143Z,6.50
2019-02-17T08:30:04.818Z,6.60
2019-02-17T08:32:32.435Z,6.70
2019-02-17T08:35:00.592Z,6.80
2019-02-17T08:37:28.178Z,6.90
2019-02-17T08:39:55.745Z,7.20
2019-02-17T08:42:24.031Z,7.40
2019-02-17T08:44:51.811Z,7.10
2019-02-17T08:47:19.398Z,7.10
2019-02-17T08:49:47.190Z,7.20
2019-02-17T08:52:14.739Z,7.40
2019-02-17T08:54:42.290Z,7.50
2019-02-17T08:57:09.741Z,7.60
2019-02-17T08:59:37.300Z,7.80
2019-02-17T09:02:06.245Z,7.90
2019-02-17T09:04:33.943Z,8.10
2019-02-17T09:07:01.514Z,8.10
2019-02-17T09:09:29.011Z,8.30
2019-02-17T09:11:56.754Z,8.50
2019-02-17T09:14:24.209Z,8.60
2019-02-17T09:16:52.795Z,8.70
2019-02-17T09:19:20.347Z,8.90
2019-02-17T09:21:47.938Z,9.00
2019-02-17T09:24:15.410Z,9.10
2019-02-17T09:26:42.824Z,9.20
2019-02-17T09:29:11.107Z,9.40
2019-02-17T09:31:38.525Z,9.40
2019-02-17T09:34:06.231Z,9.60
2019-02-17T09:36:33.787Z,9.80
2019-02-17T09:39:01.245Z,10.00
2019-02-17T09:41:28.784Z,10.00
2019-02-17T09:43:56.545Z,10.00
2019-02-17T09:46:23.980Z,10.10
2019-02-17T09:48:52.127Z,10.30
2019-02-17T09:51:19.612Z,10.60
2019-02-17T09:53:47.250Z,10.70
2019-02-17T09:56:14.866Z,11.00
2019-02-17T09:58:42.989Z,11.00
2019-02-17T10:01:12.393Z,11.00
2019-02-17T10:03:40.120Z,11.20
2019-02-17T10:06:07.996Z,11.40
2019-02-17T10:08:36.376Z,11.50
2019-02-17T10:11:04.509Z,11.70
2019-02-17T10:13:32.355Z,11.90
2019-02-17T10:16:01.081Z,11.90
2019-02-17T10:18:28.988Z,12.00
2019-02-17T10:20:57.768Z,12.10
2019-02-17T10:23:25.665Z,12.20
2019-02-17T10:25:53.600Z,12.40
2019-02-17T10:28:21.324Z,12.40
2019-02-17T10:30:50.009Z,12.60
2019-02-17T10:33:17.713Z,12.60
2019-02-17T10:35:45.458Z,12.80
2019-02-17T10:38:12.849Z,12.90
2019-02-17T10:40:40.192Z,13.00
2019-02-17T10:43:07.484Z,13.10
2019-02-17T10:45:35.570Z,13.20
2019-02-17T10:48:03.116Z,13.30
2019-02-17T10:50:30.411Z,13.40
2019-02-17T10:52:57.775Z,13.40
2019-02-17T10:55:25.706Z,13.50
2019-02-17T10:57:53.241Z,13.70
2019-02-17T11:00:20.871Z,13.70
2019-02-17T11:02:48.206Z,13.80
2019-02-17T11:05:16.310Z,13.90
2019-02-17T11:07:43.968Z,14.20
2019-02-17T11:10:11.734Z,14.40
2019-02-17T11:12:48.114Z,14.50
2019-02-17T11:15:16.049Z,14.60
2019-02-17T11:17:45.369Z,14.80
2019-02-17T11:20:12.913Z,14.70
2019-02-17T11:22:40.220Z,14.70
2019-02-17T11:25:07.950Z,14.70
2019-02-17T11:27:35.280Z,14.90
2019-02-17T11:30:02.782Z,15.00
2019-02-17T11:32:32.217Z,15.10
2019-02-17T11:34:59.697Z,15.30
2019-02-17T11:37:26.989Z,15.40
2019-02-17T11:39:54.332Z,15.40
2019-02-17T11:42:21.639Z,15.60
2019-02-17T11:44:49.229Z,15.60
2019-02-17T11:47:16.893Z,15.70
2019-02-17T11:49:44.757Z,15.90
2019-02-17T11:52:12.202Z,16.00
2019-02-17T11:54:39.564Z,16.10
2019-02-17T11:57:07.232Z,15.90
2019-02-17T11:59:35.178Z,15.90
2019-02-17T12:02:03.248Z,16.00
2019-02-17T12:04:31.221Z,16.20
2019-02-17T12:07:00.284Z,16.30
2019-02-17T12:09:28.312Z,16.10
2019-02-17T12:11:55.894Z,16.10
2019-02-17T12:14:31.509Z,16.10
2019-02-17T12:17:00.461Z,16.10
2019-02-17T12:19:28.063Z,16.20
2019-02-17T12:22:03.385Z,16.20
2019-02-17T12:24:53.312Z,16.40
2019-02-17T12:27:39.787Z,16.40
2019-02-17T12:30:11.572Z,16.60
2019-02-17T12:32:44.302Z,16.90
2019-02-17T12:35:29.464Z,17.20
2019-02-17T12:38:10.887Z,17.20
2019-02-17T12:40:43.990Z,17.30
2019-02-17T12:43:21.168Z,17.40
2019-02-17T12:45:58.439Z,17.50
2019-02-17T12:48:29.563Z,17.60
2019-02-17T12:51:03.795Z,17.70
2019-02-17T12:53:34.480Z,17.70
2019-02-17T12:56:09.423Z,17.70
2019-02-17T12:58:45.694Z,17.60
2019-02-17T13:01:21.538Z,17.60
2019-02-17T13:03:55.107Z,17.70
2019-02-17T13:06:30.426Z,17.70
2019-02-17T13:09:14.916Z,17.80
2019-02-17T13:11:48.325Z,17.90
2019-02-17T13:14:22.748Z,18.00
2019-02-17T13:16:57.442Z,17.90
2019-02-17T13:19:34.642Z,18.00
2019-02-17T13:22:15.605Z,17.90
2019-02-17T13:24:44.565Z,18.00
2019-02-17T13:27:22.354Z,18.30
2019-02-17T13:29:52.905Z,18.30
2019-02-17T13:32:28.624Z,18.30
2019-02-17T13:35:07.223Z,18.50
2019-02-17T13:37:50.586Z,18.40
2019-02-17T13:40:34.993Z,18.50
2019-02-17T13:43:16.639Z,18.50
2019-02-17T13:45:51.841Z,18.30
2019-02-17T13:48:28.400Z,18.10
2019-02-17T13:50:58.957Z,18.00
2019-02-17T13:53:29.627Z,18.20
2019-02-17T13:55:58.858Z,18.20
2019-02-17T13:58:27.649Z,18.20
2019-02-17T14:00:59.330Z,18.30
2019-02-17T14:03:48.225Z,18.40
2019-02-17T14:06:18.922Z,18.30
2019-02-17T14:08:55.241Z,18.20
2019-02-17T14:11:26.558Z,18.10
2019-02-17T14:14:15.133Z,18.00
2019-02-17T14:16:49.204Z,17.90
2019-02-17T14:22:50.940Z,17.80
2019-02-17T14:25:37.056Z,17.60
2019-02-17T14:28:43.757Z,17.60
2019-02-17T14:31:41.905Z,17.50
2019-02-17T14:34:27.712Z,17.40
2019-02-17T14:37:01.339Z,17.40
2019-02-17T14:39:30.792Z,17.10
2019-02-17T14:42:24.060Z,17.20
2019-02-17T14:45:28.587Z,17.10
2019-02-17T14:48:16.102Z,17.00
2019-02-17T14:51:15.261Z,16.70
2019-02-17T14:54:09.271Z,16.50
2019-02-17T14:56:45.064Z,16.30
2019-02-17T15:00:15.318Z,16.10
2019-02-17T15:03:00.873Z,16.00
2019-02-17T15:05:54.447Z,15.80
2019-02-17T15:08:38.206Z,15.70
2019-02-17T15:11:27.792Z,15.60
2019-02-17T15:13:55.725Z,15.40
2019-02-17T15:16:32.049Z,15.20
2019-02-17T15:19:02.474Z,15.20
2019-02-17T15:21:42.635Z,15.00
2019-02-17T15:24:15.055Z,14.80
2019-02-17T15:27:03.325Z,14.70
2019-02-17T15:29:38.909Z,14.60
2019-02-17T15:32:06.966Z,14.50
2019-02-17T15:34:46.423Z,14.40
2019-02-17T15:37:32.624Z,14.30
2019-02-17T15:40:01.391Z,14.10
2019-02-17T15:42:36.545Z,13.90
2019-02-17T15:45:15.201Z,13.80
2019-02-17T15:47:46.588Z,13.60
2019-02-17T15:50:15.362Z,13.40
2019-02-17T15:52:44.695Z,13.30
2019-02-17T15:55:21.341Z,13.10
2019-02-17T15:58:01.459Z,13.00
2019-02-17T16:00:38.831Z,12.90
2019-02-17T16:03:29.967Z,12.80
2019-02-17T16:06:23.880Z,12.70
2019-02-17T16:09:01.087Z,12.50
2019-02-17T16:11:41.914Z,12.40
2019-02-17T16:14:18.518Z,12.20
2019-02-17T16:16:53.497Z,12.10
2019-02-17T16:19:35.360Z,12.00
2019-02-17T16:22:07.954Z,11.90
2019-02-17T16:24:48.422Z,11.80
2019-02-17T16:27:28.030Z,11.80
2019-02-17T16:30:10.761Z,11.60
2019-02-17T16:32:41.172Z,11.60
2019-02-17T16:35:45.484Z,11.60
2019-02-17T16:38:38.238Z,11.50
2019-02-17T16:41:25.323Z,11.30
2019-02-17T16:43:53.893Z,11.20
2019-02-17T16:46:25.740Z,11.10
2019-02-17T16:49:07.277Z,11.20
2019-02-17T16:51:41.664Z,11.10
2019-02-17T16:54:12.404Z,11.00
2019-02-17T16:56:46.706Z,11.00
2019-02-17T16:59:32.088Z,11.00
2019-02-17T17:02:19.107Z,11.00
2019-02-17T17:05:17.982Z,10.80
2019-02-17T17:08:02.117Z,10.70
2019-02-17T17:10:52.894Z,10.60
2019-02-17T17:14:21.720Z,10.70
2019-02-17T17:16:53.851Z,10.70
2019-02-17T17:19:29.226Z,10.70
2019-02-17T17:22:01.735Z,10.60
2019-02-17T17:24:41.481Z,10.50
2019-02-17T17:27:13.341Z,10.30
2019-02-17T17:29:50.503Z,10.20
2019-02-17T17:32:28.435Z,10.00
2019-02-17T17:34:59.585Z,10.10
2019-02-17T17:37:30.021Z,9.90
2019-02-17T17:40:00.948Z,9.80
2019-02-17T17:42:35.425Z,9.70
2019-02-17T17:45:05.040Z,9.50
2019-02-17T17:47:34.541Z,9.30
2019-02-17T17:50:05.954Z,9.30
2019-02-17T17:52:35.437Z,9.40
2019-02-17T17:55:03.563Z,9.40
2019-02-17T17:57:34.571Z,9.50
2019-02-17T18:00:03.279Z,9.40
2019-02-17T18:02:31.030Z,9.50
2019-02-17T18:05:08.440Z,9.60
2019-02-17T18:07:29.567Z,9.70
2019-02-17T18:09:58.149Z,9.60
2019-02-17T18:12:26.229Z,9.30
2019-02-17T18:14:54.408Z,9.00
2019-02-17T18:17:22.547Z,8.90
2019-02-17T18:19:52.296Z,8.70
2019-02-17T18:22:20.433Z,8.60
2019-02-17T18:24:51.301Z,8.40
2019-02-17T18:27:19.105Z,8.30
2019-02-17T18:29:47.391Z,8.20
2019-02-17T18:32:16.014Z,8.10
2019-02-17T18:34:47.365Z,8.00
2019-02-17T18:37:15.063Z,8.10
2019-02-17T18:39:43.098Z,8.30
2019-02-17T18:42:10.794Z,8.30
2019-02-17T18:44:38.497Z,8.50
2019-02-17T18:47:07.128Z,8.60
2019-02-17T18:49:34.954Z,8.60
2019-02-17T18:52:02.716Z,8.50
2019-02-17T18:54:32.866Z,8.60
2019-02-17T18:57:08.032Z,8.60
2019-02-17T18:59:30.941Z,8.20
2019-02-17T19:01:59.611Z,8.20
2019-02-17T19:04:27.830Z,8.20
2019-02-17T19:06:55.769Z,8.20
2019-02-17T19:09:24.104Z,8.20
2019-02-17T19:11:52.936Z,8.00
2019-02-17T19:14:20.654Z,8.00
2019-02-17T19:16:48.521Z,7.90
2019-02-17T19:19:16.724Z,7.80
2019-02-17T19:21:44.324Z,7.60
2019-02-17T19:24:12.614Z,7.50
2019-02-17T19:26:40.173Z,7.50
2019-02-17T19:29:07.840Z,7.50
2019-02-17T19:31:35.922Z,7.50
2019-02-17T19:34:07.702Z,7.40
2019-02-17T19:36:35.254Z,7.30
2019-02-17T19:39:04.940Z,7.20
2019-02-17T19:41:33.230Z,7.20
2019-02-17T19:44:01.266Z,7.20
2019-02-17T19:46:29.268Z,7.20
2019-02-17T19:49:01.639Z,7.10
2019-02-17T19:51:29.733Z,7.00
2019-02-17T19:53:58.088Z,7.00
2019-02-17T19:56:26.030Z,7.00
2019-02-17T19:58:57.136Z,6.90
2019-02-17T20:01:28.071Z,6.90
2019-02-17T20:04:05.966Z,6.80
2019-02-17T20:06:33.999Z,6.90
2019-02-17T20:09:02.028Z,6.90
2019-02-17T20:11:30.753Z,6.90
2019-02-17T20:13:58.927Z,6.90
2019-02-17T20:16:29.031Z,6.80
2019-02-17T20:18:59.911Z,6.80
2019-02-17T20:21:30.570Z,6.70
2019-02-17T20:23:59.122Z,6.70
2019-02-17T20:26:27.296Z,6.70
2019-02-17T20:28:59.288Z,6.60
2019-02-17T20:31:27.738Z,6.50
2019-02-17T20:33:55.706Z,6.40
2019-02-17T20:36:23.754Z,6.40
2019-02-17T20:38:51.646Z,6.50
2019-02-17T20:41:19.345Z,6.40
2019-02-17T20:43:46.996Z,6.40
2019-02-17T20:46:15.066Z,6.40
2019-02-17T20:48:48.756Z,6.40
2019-02-17T20:51:17.110Z,6.30
2019-02-17T20:53:46.519Z,6.30
2019-02-17T20:56:15.719Z,6.30
2019-02-17T20:58:43.582Z,6.10
2019-02-17T21:01:11.942Z,6.00
2019-02-17T21:03:39.571Z,6.00
2019-02-17T21:06:12.691Z,6.10
2019-02-17T21:08:37.008Z,6.00
2019-02-17T21:11:07.085Z,5.90
2019-02-17T21:13:35.755Z,5.90
2019-02-17T21:16:04.552Z,6.00
2019-02-17T21:18:32.177Z,6.10
2019-02-17T21:21:00.644Z,6.00
2019-02-17T21:23:29.136Z,6.00
2019-02-17T21:25:56.783Z,6.10
2019-02-17T21:28:24.405Z,6.10
2019-02-17T21:30:57.827Z,6.00
2019-02-17T21:33:28.355Z,5.90
2019-02-17T21:35:56.148Z,6.00
2019-02-17T21:38:30.490Z,5.90
2019-02-17T21:41:08.775Z,5.80
2019-02-17T21:43:30.923Z,5.80
2019-02-17T21:45:59.057Z,5.80
2019-02-17T21:48:26.930Z,5.80
2019-02-17T21:50:54.440Z,5.80
2019-02-17T21:53:22.304Z,5.80
2019-02-17T21:55:50.004Z,5.80
2019-02-17T21:58:18.823Z,5.70
2019-02-17T22:00:46.404Z,5.80
2019-02-17T22:03:14.065Z,5.80
2019-02-17T22:05:41.969Z,5.80
2019-02-17T22:08:09.954Z,5.80
2019-02-17T22:10:38.391Z,5.80
2019-02-17T22:13:11.086Z,5.80
2019-02-17T22:15:42.357Z,5.80
2019-02-17T22:18:09.954Z,5.70
2019-02-17T22:20:37.576Z,5.60
2019-02-17T22:23:06.061Z,5.60
2019-02-17T22:25:37.499Z,5.60
2019-02-17T22:28:06.002Z,5.60
2019-02-17T22:30:34.626Z,5.60
2019-02-17T22:33:02.599Z,5.50
2019-02-17T22:35:30.175Z,5.50
2019-02-17T22:37:58.189Z,5.50
2019-02-17T22:40:26.509Z,5.40
2019-02-17T22:42:54.899Z,5.30
2019-02-17T22:45:22.811Z,5.40
2019-02-17T22:47:50.552Z,5.40
2019-02-17T22:50:18.800Z,5.40
2019-02-17T22:52:46.973Z,5.30
2019-02-17T22:55:17.835Z,5.30
2019-02-17T22:57:46.003Z,5.40
2019-02-17T23:00:36.941Z,5.30
2019-02-17T23:03:05.187Z,5.20
2019-02-17T23:05:33.525Z,5.20
2019-02-17T23:08:01.461Z,5.20
2019-02-17T23:10:29.448Z,5.20
2019-02-17T23:12:57.277Z,5.20
2019-02-17T23:15:25.503Z,5.20
2019-02-17T23:17:55.220Z,5.20
2019-02-17T23:20:25.919Z,5.20
2019-02-17T23:22:56.902Z,5.30
2019-02-17T23:25:24.906Z,5.10
2019-02-17T23:27:53.399Z,5.10
2019-02-17T23:30:21.523Z,5.20
2019-02-17T23:32:50.061Z,5.20
2019-02-17T23:35:18.108Z,5.10
2019-02-17T23:37:46.831Z,5.20
2019-02-17T23:40:14.841Z,5.20
2019-02-17T23:42:42.708Z,5.10
2019-02-17T23:45:10.611Z,5.10
2019-02-17T23:47:38.719Z,5.30
2019-02-17T23:50:08.891Z,5.30
2019-02-17T23:52:37.229Z,5.20
2019-02-17T23:55:05.767Z,5.20
2019-02-17T23:57:33.845Z,5.10
